Latest Weather Observations for Munglinup West

IDW60801

Issued at 6:02 pm WST Saturday 30 May 2015 (issued every 30 minutes, with the page automatically refreshed every 10 minutes)

About weather observations | Map of weather stations | Latest weather observations for WA | Other Formats
Station Details ID: 012044 Name: MUNGLINUP WEST Lat: -33.55 Lon: 120.70 Height: 220.0 m
Data from the previous 72 hours. | See also: Recent months at Munglinup West
Date/Time
WST
Temp
°C
App
Temp
°C
Dew
Point
Rel
Hum
%
Delta-T
°C
Wind Press
QNH
hPa
Press
MSL
hPa
Rain
since 9 am
mm
Dir
 
Spd
km/h
Gust
km/h
Spd
kts
Gust
kts
30/06:00pm 10.3 7.6 7.5 83 1.3 ESE 11 13 6 7 1025.7 1025.4 0.0
30/05:30pm 9.8 6.9 6.3 79 1.6 SE 11 13 6 7 1025.7 1025.4 0.0
30/05:00pm 12.1 9.4 7.2 72 2.4 SE 11 13 6 7 1025.4 1025.1 0.0
30/04:30pm 15.1 12.8 7.4 60 3.9 S 9 17 5 9 1025.3 1025.0 0.0
30/04:00pm 17.1 14.7 4.1 42 6.1 SSW 6 7 3 4 1025.2 1024.9 0.0
30/03:30pm 17.7 15.7 4.6 42 6.3 S 4 9 2 5 1025.2 1024.9 0.0
30/03:00pm 18.0 15.9 3.9 39 6.7 WNW 4 11 2 6 1025.3 1025.0 0.0
30/02:30pm 17.7 15.2 3.6 39 6.7 SW 6 9 3 5 1025.2 1024.9 0.0
30/02:00pm 17.6 14.4 3.1 38 6.7 SW 9 15 5 8 1025.4 1025.1 0.0
30/01:30pm 17.6 14.7 4.6 42 6.2 SW 9 13 5 7 1025.6 1025.3 0.0
30/01:00pm 17.0 14.1 4.7 44 5.9 WSW 9 15 5 8 1025.8 1025.5 0.0
30/12:30pm 17.2 14.9 4.9 44 5.9 NW 6 11 3 6 1026.0 1025.7 0.0
30/12:00pm 16.6 14.3 5.6 48 5.3 WNW 7 13 4 7 1026.4 1026.2 0.0
30/11:30am 16.5 14.3 6.1 50 5.1 WNW 7 19 4 10 1026.9 1026.7 0.0
30/11:00am 16.1 14.0 6.0 51 4.9 NNW 6 11 3 6 1027.4 1027.2 0.0
30/10:30am 15.2 12.7 6.7 57 4.2 WNW 9 13 5 7 1027.8 1027.6 0.0
30/10:00am 14.6 12.9 8.3 66 3.2 NW 7 13 4 7 1028.1 1027.9 0.0
30/09:30am 12.8 11.0 9.4 80 1.7 NW 9 13 5 7 1028.3 1028.1 0.0
30/09:00am 11.7 10.2 10.4 92 0.7 NNW 9 13 5 7 1028.3 1028.1 0.2
30/08:30am 10.4 9.2 10.2 99 0.1 NNW 7 9 4 5 1028.1 1027.9 0.2
30/08:00am 8.5 6.5 8.5 100 0.0 NNW 9 9 5 5 1027.9 1027.7 0.2
30/07:30am 6.8 4.7 6.8 100 0.0 N 7 9 4 5 1028.0 1027.8 0.2
30/07:00am 5.5 2.8 5.5 100 0.0 NNW 9 9 5 5 1027.9 1027.7 0.0
30/06:30am 5.7 3.4 5.7 100 0.0 N 7 7 4 4 1027.7 1027.5 0.0
30/06:00am 6.0 3.8 6.0 100 0.0 NNW 7 9 4 5 1027.6 1027.4 0.0
30/05:30am 5.8 3.5 5.8 100 0.0 N 7 9 4 5 1027.5 1027.3 0.0
30/05:00am 5.7 3.4 5.7 100 0.0 N 7 9 4 5 1027.3 1027.1 0.0
30/04:30am 6.0 3.4 6.0 100 0.0 N 9 9 5 5 1027.3 1027.1 0.0
30/04:00am 5.9 3.3 5.9 100 0.0 N 9 9 5 5 1027.1 1026.9 0.0
30/03:30am 5.6 2.9 5.6 100 0.0 N 9 9 5 5 1027.1 1026.9 0.0
30/03:00am 5.8 3.1 5.8 100 0.0 N 9 11 5 6 1027.1 1026.9 0.0
30/02:30am 5.5 2.8 5.5 100 0.0 N 9 11 5 6 1027.2 1027.0 0.0
30/02:00am 5.5 3.1 5.4 99 0.0 N 7 9 4 5 1027.2 1027.0 0.0
30/01:30am 5.9 3.2 5.8 99 0.0 N 9 9 5 5 1027.1 1026.9 0.0
30/01:00am 6.0 3.7 5.9 99 0.0 N 7 9 4 5 1027.2 1027.0 0.0
30/12:30am 5.5 2.7 5.2 98 0.1 NNW 9 9 5 5 1027.3 1027.1 0.0
30/12:00am 5.1 2.2 4.8 98 0.1 NNW 9 11 5 6 1027.5 1027.3 0.0
 
Date/Time
WST
Temp
°C
App
Temp
°C
Dew
Point
Rel
Hum
%
Delta-T
°C
Wind Press
QNH
hPa
Press
MSL
hPa
Rain
since 9 am
mm
Dir
 
Spd
km/h
Gust
km/h
Spd
kts
Gust
kts
29/11:30pm 7.1 5.0 6.8 98 0.1 E 7 7 4 4 1027.6 1027.4 0.0
29/11:00pm 7.3 5.3 7.0 98 0.1 E 7 9 4 5 1027.7 1027.5 0.0
29/10:30pm 7.4 5.0 7.0 97 0.2 E 9 9 5 5 1027.8 1027.6 0.0
29/10:00pm 7.0 4.5 6.4 96 0.3 E 9 11 5 6 1027.8 1027.6 0.0
29/09:30pm 7.1 4.6 6.4 95 0.3 ENE 9 9 5 5 1027.9 1027.7 0.0
29/09:00pm 7.7 5.3 7.0 95 0.3 E 9 11 5 6 1027.9 1027.7 0.0
29/08:30pm 8.0 5.6 7.2 95 0.4 E 9 9 5 5 1027.9 1027.7 0.0
29/08:00pm 7.9 5.9 7.0 94 0.4 ESE 7 9 4 5 1027.8 1027.6 0.0
29/07:30pm 8.0 5.6 6.8 92 0.6 ESE 9 9 5 5 1027.7 1027.5 0.0
29/07:00pm 8.7 6.4 7.5 92 0.6 ESE 9 9 5 5 1027.3 1027.1 0.0
29/06:30pm 9.2 7.4 7.8 91 0.7 ESE 7 9 4 5 1027.0 1026.8 0.0
29/06:00pm 8.9 6.5 7.2 89 0.8 SE 9 9 5 5 1026.8 1026.6 0.0
29/05:30pm 9.3 7.1 6.2 81 1.4 SSE 7 9 4 5 1026.4 1026.2 0.0
29/05:00pm 11.9 10.0 7.4 74 2.2 S 7 9 4 5 1026.1 1025.8 0.0
29/04:30pm 12.7 10.7 6.3 65 3.1 WSW 6 9 3 5 1025.8 1025.5 0.0
29/04:00pm 12.9 10.8 6.5 65 3.1 WSW 7 9 4 5 1025.7 1025.4 0.0
29/03:30pm 14.4 12.5 6.7 60 3.8 W 6 7 3 4 1025.6 1025.3 0.0
29/03:00pm 15.5 12.5 6.0 53 4.6 W 11 15 6 8 1025.6 1025.3 0.0
29/02:30pm 15.4 12.5 6.4 55 4.4 W 11 15 6 8 1025.5 1025.2 0.0
29/02:00pm 16.3 13.8 6.4 52 4.9 W 9 17 5 9 1025.4 1025.1 0.0
29/01:30pm 15.0 13.1 6.8 58 4.0 W 6 9 3 5 1025.6 1025.3 0.0
29/01:00pm 15.0 13.0 7.1 59 3.9 SW 7 11 4 6 1025.9 1025.6 0.0
29/12:30pm 14.8 12.1 7.4 61 3.7 WSW 11 20 6 11 1026.1 1025.8 0.0
29/12:00pm 15.0 13.1 6.8 58 4.0 WSW 6 11 3 6 1026.4 1026.2 0.0
29/11:30am 13.6 11.4 7.8 68 2.9 SW 9 13 5 7 1026.9 1026.7 0.0
29/11:00am 13.5 11.7 7.9 69 2.8 W 7 11 4 6 1027.2 1027.0 0.0
29/10:30am 14.6 13.6 9.0 69 2.9 NNW 4 7 2 4 1027.6 1027.4 0.0
29/10:00am 13.3 12.8 12.0 92 0.7 WNW 6 7 3 4 1027.8 1027.6 0.0
29/09:30am 11.1 10.3 11.1 100 0.0 NW 6 6 3 3 1027.9 1027.7 0.0
29/09:00am 10.3 9.3 10.3 100 0.0 NNW 6 7 3 4 1027.9 1027.7 1.0
29/08:30am 9.0 8.0 9.0 100 0.0 NNW 4 6 2 3 1027.7 1027.5 1.0
29/08:00am 7.5 5.8 7.5 100 0.0 NW 6 9 3 5 1027.6 1027.4 1.0
29/07:30am 7.3 5.5 7.3 100 0.0 N 6 6 3 3 1027.3 1027.1 1.0
29/07:00am 6.5 4.6 6.5 100 0.0 N 6 6 3 3 1027.1 1026.9 1.0
29/06:30am 6.6 4.7 6.6 100 0.0 NNW 6 7 3 4 1027.1 1026.9 1.0
29/06:00am 6.4 4.2 6.4 100 0.0 N 7 9 4 5 1027.0 1026.8 1.0
29/05:30am 6.3 4.1 6.3 100 0.0 N 7 7 4 4 1026.8 1026.6 0.8
29/05:00am 5.4 3.0 5.4 100 0.0 N 7 9 4 5 1026.7 1026.5 0.8
29/04:30am 5.8 3.5 5.8 100 0.0 NNW 7 9 4 5 1026.7 1026.5 0.8
29/04:00am 5.6 3.3 5.6 100 0.0 NNW 7 9 4 5 1026.6 1026.4 0.8
29/03:30am 5.3 2.9 5.3 100 0.0 NNW 7 7 4 4 1026.6 1026.4 0.8
29/03:00am 5.0 2.5 5.0 100 0.0 NNW 7 7 4 4 1026.3 1026.1 0.8
29/02:30am 6.3 4.7 6.3 100 0.0 NW 4 6 2 3 1026.2 1025.9 0.8
29/02:00am 6.3 4.3 6.3 100 0.0 WNW 6 7 3 4 1026.4 1026.2 0.8
29/01:30am 6.2 4.0 6.1 99 0.0 WNW 7 9 4 5 1026.5 1026.3 0.8
29/01:00am 5.7 3.6 5.6 99 0.0 NNW 6 7 3 4 1026.4 1026.2 0.8
29/12:30am 6.5 4.3 6.4 99 0.0 N 7 9 4 5 1026.5 1026.3 0.8
29/12:00am 6.5 4.9 6.2 98 0.1 NE 4 6 2 3 1026.6 1026.4 0.8
 
Date/Time
WST
Temp
°C
App
Temp
°C
Dew
Point
Rel
Hum
%
Delta-T
°C
Wind Press
QNH
hPa
Press
MSL
hPa
Rain
since 9 am
mm
Dir
 
Spd
km/h
Gust
km/h
Spd
kts
Gust
kts
28/11:30pm 7.1 5.2 6.8 98 0.1 NE 6 6 3 3 1026.6 1026.4 0.8
28/11:00pm 7.2 5.3 6.8 97 0.2 NE 6 6 3 3 1026.6 1026.4 0.8
28/10:30pm 7.9 5.6 7.5 97 0.2 ENE 9 9 5 5 1026.6 1026.4 0.8
28/10:00pm 7.9 6.2 7.5 97 0.2 ENE 6 7 3 4 1026.7 1026.5 0.8
28/09:30pm 8.0 6.3 7.4 96 0.3 ESE 6 7 3 4 1026.7 1026.5 0.8
28/09:00pm 8.8 7.6 8.0 95 0.4 ESE 4 4 2 2 1026.7 1026.5 0.8
28/08:30pm 8.9 7.3 8.1 95 0.4 E 6 6 3 3 1026.7 1026.5 0.8
28/08:00pm 9.3 7.6 8.4 94 0.4 E 7 7 4 4 1026.3 1026.1 0.8
28/07:30pm 9.7 8.1 8.8 94 0.4 ESE 7 9 4 5 1025.9 1025.6 0.8
28/07:00pm 9.5 7.4 8.4 93 0.5 ESE 9 11 5 6 1025.8 1025.5 0.8
28/06:30pm 10.0 7.5 8.4 90 0.8 SE 11 15 6 8 1025.4 1025.1 0.8
28/06:00pm 11.0 9.3 8.2 83 1.4 S 7 11 4 6 1025.0 1024.7 0.8
28/05:30pm 11.7 9.7 8.7 82 1.5 S 9 13 5 7 1024.8 1024.5 0.8
28/05:00pm 11.6 10.1 9.2 85 1.2 SSE 7 9 4 5 1024.5 1024.2 0.8
28/04:30pm 12.2 10.8 9.4 83 1.4 SSE 7 9 4 5 1024.2 1024.0 0.8
28/04:00pm 12.1 9.9 9.3 83 1.4 S 11 19 6 10 1024.1 1023.9 0.8
28/03:30pm 13.0 10.8 9.4 79 1.8 S 11 15 6 8 1023.8 1023.6 0.8
28/03:00pm 12.8 12.8 11.2 90 0.8 SSW 2 6 1 3 1023.8 1023.6 0.8
28/02:30pm 11.9 10.8 10.8 93 0.6 S 7 15 4 8 1023.7 1023.5 0.8
28/02:00pm 13.9 11.4 9.7 76 2.2 SSE 13 22 7 12 1023.5 1023.3 0.4
28/01:30pm 13.4 11.5 10.4 82 1.6 SSE 11 15 6 8 1023.4 1023.2 0.4
28/01:00pm 12.8 10.1 11.7 93 0.6 SSE 17 20 9 11 1023.6 1023.4 0.4
28/12:30pm 12.4 11.5 11.3 93 0.6 SSW 7 13 4 7 1023.9 1023.7 0.2
28/12:00pm 14.2 12.4 11.0 81 1.7 SSW 11 19 6 10 1023.8 1023.6 0.0
28/11:30am 13.9 12.6 11.2 84 1.4 S 9 17 5 9 1024.2 1024.0 0.0
28/11:00am 13.4 13.0 13.1 98 0.2 S 7 15 4 8 1024.5 1024.2 0.0
28/10:30am 12.1 10.3 12.1 100 0.0 SSW 13 17 7 9 1024.7 1024.4 0.0
28/10:00am 11.3 9.2 11.3 100 0.0 WSW 13 15 7 8 1024.8 1024.5 0.0
28/09:30am 11.2 10.3 11.2 100 0.0 SW 7 9 4 5 1024.6 1024.3 0.0
28/09:00am 10.8 9.7 10.8 100 0.0 WSW 7 9 4 5 1024.3 1024.1 0.4
28/08:30am 10.2 9.0 10.2 100 0.0 W 7 9 4 5 1024.1 1023.9 0.4
28/08:00am 9.7 8.5 9.7 100 0.0 W 6 7 3 4 1023.8 1023.6 0.4
28/07:30am 9.4 8.5 9.4 100 0.0 W 4 4 2 2 1023.5 1023.3 0.4
28/07:00am 8.9 8.3 8.8 99 0.0 W 2 4 1 2 1023.3 1023.1 0.4
28/06:30am 8.9 7.3 8.8 99 0.0 W 7 9 4 5 1023.0 1022.8 0.2
28/06:00am 8.4 6.6 8.0 97 0.2 W 7 9 4 5 1022.7 1022.5 0.2
28/05:30am 7.7 5.9 7.0 95 0.3 NW 6 7 3 4 1022.3 1022.0 0.2
28/05:00am 7.3 5.6 6.1 92 0.5 NNW 4 6 2 3 1022.2 1021.9 0.0
28/04:30am 7.8 5.6 5.4 85 1.1 NW 6 9 3 5 1022.0 1021.7 0.0
28/04:00am 7.9 6.1 5.2 83 1.2 WNW 4 7 2 4 1021.8 1021.5 0.0
28/03:30am 8.0 5.2 5.3 83 1.2 WNW 9 13 5 7 1021.5 1021.2 0.0
28/03:00am 8.0 4.4 4.8 80 1.4 WSW 13 17 7 9 1021.4 1021.1 0.0
28/02:30am 8.6 4.5 4.4 75 1.9 W 15 17 8 9 1021.5 1021.2 0.0
28/02:00am 8.4 5.3 3.8 73 2.0 WNW 9 13 5 7 1021.7 1021.4 0.0
28/01:30am 8.7 5.6 3.7 71 2.2 WNW 9 11 5 6 1021.6 1021.3 0.0
28/01:00am 8.7 5.6 3.7 71 2.2 NW 9 13 5 7 1021.6 1021.3 0.0
28/12:30am 8.2 4.8 3.9 74 1.9 NW 11 15 6 8 1021.7 1021.4 0.0
28/12:00am 7.9 4.1 3.8 75 1.8 NW 13 17 7 9 1021.6 1021.3 0.0
 
Date/Time
WST
Temp
°C
App
Temp
°C
Dew
Point
Rel
Hum
%
Delta-T
°C
Wind Press
QNH
hPa
Press
MSL
hPa
Rain
since 9 am
mm
Dir
 
Spd
km/h
Gust
km/h
Spd
kts
Gust
kts
27/11:30pm 6.9 3.3 2.8 75 1.7 NNW 11 13 6 7 1021.5 1021.2 0.0
27/11:00pm 7.4 3.5 3.3 75 1.8 NW 13 15 7 8 1021.3 1021.0 0.0
27/10:30pm 7.8 4.3 3.3 73 1.9 NW 11 13 6 7 1021.3 1021.0 0.0
27/10:00pm 8.0 4.5 3.5 73 1.9 NNW 11 13 6 7 1021.5 1021.2 0.0
27/09:30pm 8.2 5.1 3.7 73 2.0 NNW 9 11 5 6 1021.6 1021.3 0.0
27/09:00pm 8.2 5.1 3.7 73 2.0 N 9 13 5 7 1021.6 1021.3 0.0
27/08:30pm 8.5 5.1 4.1 74 1.9 NNW 11 15 6 8 1021.5 1021.2 0.0
27/08:00pm 8.0 4.9 3.8 75 1.8 NNW 9 11 5 6 1021.5 1021.2 0.0
27/07:30pm 8.6 6.0 4.2 74 1.9 NW 7 7 4 4 1021.2 1020.9 0.0
27/07:00pm 8.3 5.6 3.8 73 2.0 NNW 7 7 4 4 1021.0 1020.7 0.0
27/06:30pm 9.3 6.6 3.9 69 2.4 NW 7 7 4 4 1020.7 1020.4 0.0

Other Formats:

Comma delimited format used in spreadsheet applications
http://www.bom.gov.au/fwo/IDW60801/IDW60801.95644.axf

JavaScript Object Notation format (JSON) in row-major order
http://www.bom.gov.au/fwo/IDW60801/IDW60801.95644.json